Time;durP1;ratioP1;P1;durP2;ratioP2;P2;SDS_P1;SDS_P2;PMS_P1;PMS_P2;Temp;Humidity;BMP_temperature;BMP_pressure;BME280_temperature;BME280_humidity;BME280_pressure;Samples;Min_cycle;Max_cycle;Signal;HPM_P1;HPM_P2
2021/05/27 00:02:36;;;;;;;2.15;1.95;;;;;;;;;;6160377;28;20031;-83
2021/05/27 00:05:37;;;;;;;1.70;1.60;;;9.50;99.90;;;;;;6176166;28;20093;-84
2021/05/27 00:08:38;;;;;;;1.95;1.80;;;;;;;;;;6159819;28;20465;-85
2021/05/27 00:11:39;;;;;;;2.20;2.00;;;;;;;;;;6176617;28;20072;-83
2021/05/27 00:14:40;;;;;;;2.40;2.20;;;;;;;;;;6171109;28;20038;-82
2021/05/27 00:17:40;;;;;;;2.28;2.08;;;9.20;99.90;;;;;;6181276;28;20519;-83
2021/05/27 00:20:41;;;;;;;2.25;2.00;;;9.30;99.90;;;;;;6168904;28;20695;-83
2021/05/27 00:23:42;;;;;;;3.17;2.03;;;9.70;99.90;;;;;;6170812;28;20042;-82
2021/05/27 00:26:42;;;;;;;3.08;2.10;;;9.30;99.90;;;;;;6174123;28;20082;-83
2021/05/27 00:29:43;;;;;;;2.20;2.00;;;9.40;99.90;;;;;;6192434;28;20027;-82
2021/05/27 00:32:44;;;;;;;3.33;2.10;;;9.10;99.90;;;;;;6168116;28;20030;-82
2021/05/27 00:35:45;;;;;;;2.90;2.50;;;;;;;;;;6176344;28;20392;-83
2021/05/27 00:38:45;;;;;;;1.98;1.88;;;9.50;99.90;;;;;;6153431;28;20023;-83
2021/05/27 00:41:46;;;;;;;2.78;1.90;;;;;;;;;;6168912;28;20470;-83
2021/05/27 00:44:58;;;;;;;2.60;1.80;;;9.20;99.90;;;;;;6183084;28;20057;-83
2021/05/27 00:47:59;;;;;;;2.22;2.03;;;9.20;99.90;;;;;;6169006;28;20070;-82
2021/05/27 00:50:59;;;;;;;1.85;1.73;;;9.20;99.90;;;;;;6168834;28;20048;-83
2021/05/27 00:54:00;;;;;;;2.05;1.85;;;9.50;99.90;;;;;;6172191;28;20034;-85
2021/05/27 00:57:01;;;;;;;2.95;1.77;;;;;;;;;;6175808;28;20034;-82
2021/05/27 01:00:04;;;;;;;2.00;1.80;;;9.40;99.90;;;;;;6192221;28;20038;-82
2021/05/27 01:03:04;;;;;;;1.98;1.80;;;9.60;99.90;;;;;;6181517;28;20081;-82
2021/05/27 01:06:05;;;;;;;3.15;2.15;;;9.40;99.90;;;;;;6175868;28;20022;-82
2021/05/27 01:09:06;;;;;;;3.53;2.08;;;9.40;99.90;;;;;;6175737;28;20039;-82
2021/05/27 01:12:07;;;;;;;2.13;1.92;;;9.50;99.90;;;;;;6176424;28;20061;-84
2021/05/27 01:18:32;;;;;;;2.00;1.90;;;9.20;99.90;;;;;;6179213;28;20046;-83
2021/05/27 01:21:33;;;;;;;2.20;2.00;;;9.10;99.90;;;;;;6166877;28;20449;-82
2021/05/27 01:24:33;;;;;;;2.30;2.00;;;9.00;99.90;;;;;;6172689;28;20043;-82
2021/05/27 01:27:34;;;;;;;2.25;1.90;;;9.50;99.90;;;;;;6178978;28;20027;-82
2021/05/27 01:30:35;;;;;;;2.70;2.10;;;9.20;99.90;;;;;;6172550;28;20062;-82
2021/05/27 01:33:35;;;;;;;2.50;2.30;;;9.10;99.90;;;;;;6191636;28;20482;-82
2021/05/27 01:36:36;;;;;;;1.98;1.88;;;;;;;;;;6180010;28;20046;-84
2021/05/27 01:39:37;;;;;;;2.72;2.10;;;9.30;99.90;;;;;;6195726;28;20452;-84
2021/05/27 01:42:38;;;;;;;2.20;2.00;;;;;;;;;;6166162;28;20042;-82
2021/05/27 01:45:39;;;;;;;3.33;2.20;;;9.20;99.90;;;;;;6197041;28;20153;-82
2021/05/27 01:48:39;;;;;;;2.80;2.30;;;8.90;99.90;;;;;;6190465;28;20167;-84
2021/05/27 01:51:40;;;;;;;2.22;2.03;;;;;;;;;;6172349;28;20026;-83
2021/05/27 01:54:41;;;;;;;2.38;2.17;;;9.10;99.90;;;;;;6172067;28;20074;-83
2021/05/27 01:57:41;;;;;;;2.05;1.92;;;8.90;99.90;;;;;;6171906;28;20034;-83
2021/05/27 02:00:43;;;;;;;2.90;2.15;;;;;;;;;;6181399;28;20118;-84
2021/05/27 02:03:43;;;;;;;3.00;2.30;;;8.90;99.90;;;;;;6183923;28;20503;-83
2021/05/27 02:06:44;;;;;;;2.53;2.30;;;;;;;;;;6171556;28;20053;-83
2021/05/27 02:09:45;;;;;;;3.30;2.50;;;;;;;;;;6185198;28;20027;-83
2021/05/27 02:12:46;;;;;;;5.72;2.45;;;8.60;99.90;;;;;;6171745;28;20034;-83
2021/05/27 02:15:46;;;;;;;2.88;2.55;;;8.50;99.90;;;;;;6162798;28;20035;-82
2021/05/27 02:18:47;;;;;;;5.40;2.60;;;8.80;99.90;;;;;;6159217;28;20524;-83
2021/05/27 02:21:48;;;;;;;3.88;2.63;;;;;;;;;;6160876;28;20033;-83
2021/05/27 02:24:49;;;;;;;5.80;2.55;;;8.50;99.90;;;;;;6162396;28;20030;-82
2021/05/27 02:27:50;;;;;;;2.30;2.10;;;;;;;;;;6145033;28;20429;-82
2021/05/27 02:30:50;;;;;;;2.35;2.15;;;8.60;99.90;;;;;;6154452;28;20665;-81
2021/05/27 02:33:51;;;;;;;4.30;2.60;;;8.40;99.90;;;;;;6154687;28;20031;-83
2021/05/27 02:36:52;;;;;;;3.00;2.50;;;8.60;99.90;;;;;;6155132;28;20106;-82
2021/05/27 02:39:52;;;;;;;2.70;2.50;;;8.30;99.90;;;;;;6154845;28;20035;-82
2021/05/27 02:42:53;;;;;;;2.83;2.60;;;8.30;99.90;;;;;;6154887;28;20031;-83
2021/05/27 02:45:54;;;;;;;4.25;2.65;;;;;;;;;;6154941;28;20437;-82
2021/05/27 02:48:55;;;;;;;3.38;2.65;;;;;;;;;;6154802;28;20358;-81
2021/05/27 02:51:55;;;;;;;4.38;2.60;;;8.30;99.90;;;;;;6161789;28;20110;-84
2021/05/27 02:54:56;;;;;;;3.03;2.53;;;;;;;;;;6161916;28;20034;-84
2021/05/27 02:57:57;;;;;;;3.08;2.70;;;8.30;99.90;;;;;;6157978;28;20054;-83
2021/05/27 03:00:58;;;;;;;3.83;2.80;;;;;;;;;;6138352;28;20441;-83
2021/05/27 03:03:59;;;;;;;9.05;5.10;;;;;;;;;;6153974;28;20030;-83
2021/05/27 03:07:00;;;;;;;3.92;2.88;;;;;;;;;;6155066;28;20031;-81
2021/05/27 03:10:00;;;;;;;4.30;3.90;;;8.40;99.90;;;;;;6154630;28;20117;-84
2021/05/27 03:13:01;;;;;;;4.32;2.90;;;;;;;;;;6157238;28;20034;-83
2021/05/27 03:16:02;;;;;;;4.15;2.90;;;8.30;99.90;;;;;;6161170;28;20092;-82
2021/05/27 03:19:04;;;;;;;2.70;2.50;;;;;;;;;;6161351;28;20480;-81
2021/05/27 03:22:05;;;;;;;3.38;3.08;;;;;;;;;;6177537;28;20023;-82
2021/05/27 03:25:06;;;;;;;2.65;2.40;;;;;;;;;;6177417;28;20485;-81
2021/05/27 03:28:07;;;;;;;3.60;3.25;;;8.30;99.90;;;;;;6158137;28;20034;-83
2021/05/27 03:31:08;;;;;;;9.18;6.53;;;8.40;99.90;;;;;;6153786;28;20030;-83
2021/05/27 03:34:09;;;;;;;10.38;7.57;;;;;;;;;;6153886;28;20524;-83
2021/05/27 03:37:09;;;;;;;9.15;6.28;;;8.10;99.90;;;;;;6157927;28;20384;-83
2021/05/27 03:43:12;;;;;;;12.65;10.55;;;8.10;99.90;;;;;;6175654;28;20034;-84
2021/05/27 03:46:13;;;;;;;4.03;3.33;;;;;;;;;;6173103;28;20035;-82
2021/05/27 03:49:14;;;;;;;5.28;4.78;;;8.20;99.90;;;;;;6158925;28;20025;-83
2021/05/27 03:52:14;;;;;;;4.82;4.32;;;8.70;99.90;;;;;;6176807;28;20385;-82
2021/05/27 03:55:18;;;;;;;3.45;3.10;;;8.40;99.90;;;;;;6143647;28;20105;-81
2021/05/27 04:01:37;;;;;;;3.65;2.85;;;8.70;99.90;;;;;;6155965;28;20038;-83
2021/05/27 04:07:57;;;;;;;3.90;3.47;;;8.40;99.90;;;;;;6156211;28;20031;-82
2021/05/27 04:10:58;;;;;;;4.95;3.40;;;8.20;99.90;;;;;;6137228;28;20074;-82
2021/05/27 04:13:58;;;;;;;3.30;2.88;;;8.70;99.90;;;;;;6136882;28;20034;-82
2021/05/27 04:16:59;;;;;;;4.28;3.25;;;8.40;99.90;;;;;;6152710;28;20058;-84
2021/05/27 04:20:04;;;;;;;4.22;2.92;;;9.10;99.90;;;;;;6155286;28;20027;-82
2021/05/27 04:23:07;;;;;;;3.58;2.65;;;8.60;99.90;;;;;;6142999;28;20045;-83
2021/05/27 04:26:12;;;;;;;5.75;4.30;;;8.50;99.90;;;;;;6160194;28;20381;-83
2021/05/27 04:29:12;;;;;;;4.60;4.03;;;8.30;99.90;;;;;;6144708;28;20026;-82
2021/05/27 04:32:53;;;;;;;3.35;2.95;;;8.40;99.90;;;;;;6155655;28;20067;-83
2021/05/27 04:35:38;;;;;;;2.95;2.65;;;8.90;99.90;;;;;;6178711;28;20074;-82
2021/05/27 04:38:39;;;;;;;4.68;2.92;;;8.60;99.90;;;;;;6160593;28;20397;-83
2021/05/27 04:41:39;;;;;;;3.92;3.50;;;8.50;99.90;;;;;;6160316;28;20034;-83
2021/05/27 04:44:40;;;;;;;3.83;3.20;;;;;;;;;;6159987;28;20477;-82
2021/05/27 04:47:41;;;;;;;3.75;2.92;;;8.40;99.90;;;;;;6170041;28;20038;-82
2021/05/27 04:50:48;;;;;;;8.80;5.22;;;8.60;99.90;;;;;;6160384;28;20110;-83
2021/05/27 04:53:48;;;;;;;3.63;3.28;;;8.80;99.90;;;;;;6163248;28;20026;-81
2021/05/27 04:56:49;;;;;;;5.60;4.05;;;8.90;99.90;;;;;;6161578;28;20030;-82
2021/05/27 04:59:50;;;;;;;3.53;3.20;;;;;;;;;;6165481;28;20031;-82
2021/05/27 05:02:52;;;;;;;3.92;3.50;;;8.50;99.90;;;;;;6157594;28;20042;-82
2021/05/27 05:05:53;;;;;;;5.68;3.80;;;;;;;;;;6157523;28;20043;-82
2021/05/27 05:08:54;;;;;;;4.85;3.60;;;8.50;99.90;;;;;;6164364;28;20026;-82
2021/05/27 05:11:55;;;;;;;4.40;3.30;;;9.20;99.90;;;;;;6180415;28;20386;-83
2021/05/27 05:14:56;;;;;;;4.45;3.40;;;8.60;99.90;;;;;;6163229;28;20037;-82
2021/05/27 05:18:09;;;;;;;5.32;3.47;;;8.90;99.90;;;;;;6156201;28;20062;-82
2021/05/27 05:21:12;;;;;;;4.07;3.67;;;8.80;99.90;;;;;;6157242;28;20035;-83
2021/05/27 05:24:13;;;;;;;5.72;3.97;;;9.10;99.90;;;;;;6164486;28;20042;-81
2021/05/27 05:27:14;;;;;;;11.68;9.30;;;;;;;;;;6179897;28;20484;-82
2021/05/27 05:30:15;;;;;;;13.50;12.20;;;8.90;99.90;;;;;;6180088;28;20109;-81
2021/05/27 05:33:15;;;;;;;6.38;4.70;;;9.30;99.90;;;;;;6163512;28;20058;-81
2021/05/27 05:36:16;;;;;;;4.07;3.65;;;8.90;99.90;;;;;;6175571;28;20492;-83
2021/05/27 05:39:17;;;;;;;6.40;3.38;;;;;;;;;;6140113;28;20595;-84
2021/05/27 05:42:18;;;;;;;5.03;3.28;;;9.00;99.90;;;;;;6170752;28;20030;-83
2021/05/27 05:45:19;;;;;;;5.25;2.90;;;9.10;99.90;;;;;;6197106;28;20038;-83
2021/05/27 05:48:19;;;;;;;3.83;3.05;;;9.10;99.90;;;;;;6163126;28;20081;-82
2021/05/27 05:51:20;;;;;;;4.70;3.10;;;9.20;99.90;;;;;;6163435;28;20053;-83
2021/05/27 05:54:20;;;;;;;4.15;3.75;;;9.70;99.90;;;;;;6162862;28;20101;-82
2021/05/27 05:57:21;;;;;;;4.38;3.67;;;9.20;99.90;;;;;;6158924;28;20030;-84
2021/05/27 06:00:22;;;;;;;4.95;3.50;;;;;;;;;;6163023;28;20035;-82
2021/05/27 06:03:23;;;;;;;3.67;2.97;;;9.10;99.90;;;;;;6162348;28;20041;-83
2021/05/27 06:06:24;;;;;;;4.10;3.13;;;9.20;99.90;;;;;;6155962;28;20033;-82
2021/05/27 06:09:25;;;;;;;6.93;3.60;;;;;;;;;;6124369;28;20768;-81
2021/05/27 06:12:26;;;;;;;6.30;3.30;;;9.30;99.90;;;;;;6155627;28;20031;-81
2021/05/27 06:15:27;;;;;;;4.10;3.45;;;9.20;99.90;;;;;;6155669;28;20034;-83
2021/05/27 06:18:28;;;;;;;7.57;3.50;;;9.50;99.90;;;;;;6171443;28;20047;-82
2021/05/27 06:21:29;;;;;;;3.95;3.55;;;;;;;;;;6171757;28;20508;-81
2021/05/27 06:24:29;;;;;;;4.70;3.13;;;9.90;99.90;;;;;;6172148;28;20034;-81
2021/05/27 06:27:30;;;;;;;5.43;3.05;;;;;;;;;;6183791;28;20030;-81
2021/05/27 06:30:31;;;;;;;6.28;3.58;;;10.10;99.90;;;;;;6175627;28;20134;-80
2021/05/27 06:33:32;;;;;;;7.28;4.20;;;9.80;99.90;;;;;;6171150;28;20038;-81
2021/05/27 06:36:33;;;;;;;17.08;12.43;;;10.20;99.90;;;;;;6171591;28;20478;-82
2021/05/27 06:39:33;;;;;;;6.53;4.07;;;10.40;99.90;;;;;;6156427;28;20122;-81
2021/05/27 06:42:34;;;;;;;3.25;2.90;;;10.60;99.90;;;;;;6171761;28;20035;-80
2021/05/27 06:45:35;;;;;;;3.20;2.80;;;10.60;99.90;;;;;;6171239;28;20127;-84
2021/05/27 06:48:35;;;;;;;3.20;2.90;;;10.30;99.90;;;;;;6172050;28;20026;-82
2021/05/27 06:51:36;;;;;;;9.98;6.07;;;;;;;;;;6163964;28;20034;-84
2021/05/27 06:54:37;;;;;;;3.10;2.88;;;10.40;99.90;;;;;;6177633;28;20085;-82
2021/05/27 06:57:38;;;;;;;4.97;2.92;;;10.40;99.90;;;;;;6176296;28;20469;-82
2021/05/27 07:00:39;;;;;;;5.78;3.30;;;10.30;99.90;;;;;;6170860;28;20034;-83
2021/05/27 07:03:40;;;;;;;3.30;3.00;;;10.10;99.90;;;;;;6171684;28;20038;-84
2021/05/27 07:06:40;;;;;;;7.88;7.07;;;10.20;99.90;;;;;;6140207;28;20686;-83
2021/05/27 07:09:41;;;;;;;3.70;2.90;;;10.50;99.90;;;;;;6170434;28;20058;-83
2021/05/27 07:12:48;;;;;;;3.03;2.70;;;9.80;99.90;;;;;;6170087;28;20117;-84
2021/05/27 07:15:49;;;;;;;3.67;3.20;;;10.20;99.90;;;;;;6163757;28;20041;-84
2021/05/27 07:18:50;;;;;;;3.58;3.00;;;;;;;;;;6156062;28;20058;-82
2021/05/27 07:21:50;;;;;;;3.72;2.80;;;10.10;99.90;;;;;;6175778;28;20478;-83
2021/05/27 07:24:51;;;;;;;3.92;2.95;;;10.10;99.90;;;;;;6140818;28;20122;-82
2021/05/27 07:27:52;;;;;;;4.38;2.90;;;10.10;99.90;;;;;;6153800;28;20031;-83
2021/05/27 07:30:53;;;;;;;4.28;3.05;;;10.20;99.90;;;;;;6154074;28;20440;-83
2021/05/27 07:33:53;;;;;;;3.10;2.38;;;10.70;99.90;;;;;;6153816;28;20034;-85
2021/05/27 07:36:54;;;;;;;3.67;2.80;;;10.40;99.90;;;;;;6153830;28;20093;-83
2021/05/27 07:39:54;;;;;;;3.67;2.83;;;10.30;99.90;;;;;;6153502;28;20054;-79
2021/05/27 07:42:57;;;;;;;3.05;2.78;;;10.60;99.90;;;;;;6138157;28;20520;-80
2021/05/27 07:45:57;;;;;;;3.47;3.05;;;10.60;99.90;;;;;;6153913;28;20073;-81
2021/05/27 07:48:59;;;;;;;3.47;2.93;;;10.40;99.90;;;;;;6153625;28;20062;-80
2021/05/27 07:52:00;;;;;;;5.53;3.28;;;10.50;99.90;;;;;;6153050;28;20066;-80
2021/05/27 07:55:00;;;;;;;3.58;3.08;;;10.70;99.90;;;;;;6153513;28;20022;-82
2021/05/27 07:58:01;;;;;;;4.32;3.00;;;10.90;99.90;;;;;;6171175;28;20027;-83
2021/05/27 08:01:03;;;;;;;6.63;5.40;;;11.20;99.90;;;;;;6153195;28;20031;-83
2021/05/27 08:04:04;;;;;;;51.53;33.33;;;11.30;99.90;;;;;;6137653;28;20097;-82
2021/05/27 08:07:05;;;;;;;31.40;20.67;;;11.40;99.90;;;;;;6153228;28;20034;-80
2021/05/27 08:10:06;;;;;;;10.68;6.88;;;11.40;99.90;;;;;;6153928;28;20062;-81
2021/05/27 08:13:06;;;;;;;5.80;4.60;;;12.50;99.90;;;;;;6153133;28;20089;-84
2021/05/27 08:16:07;;;;;;;4.97;3.50;;;;;;;;;;6152754;28;20093;-81
2021/05/27 08:19:08;;;;;;;3.70;3.33;;;13.10;99.90;;;;;;6153559;28;20405;-82
2021/05/27 08:22:09;;;;;;;3.97;2.80;;;14.00;99.90;;;;;;6168854;28;20034;-82
2021/05/27 08:25:10;;;;;;;3.17;2.88;;;15.00;98.70;;;;;;6152243;28;20039;-83
2021/05/27 08:28:11;;;;;;;3.42;2.70;;;15.90;95.50;;;;;;6155496;28;20039;-83
2021/05/27 08:31:11;;;;;;;4.07;2.70;;;17.90;99.90;;;;;;6144059;28;20027;-84
2021/05/27 08:34:12;;;;;;;3.17;2.80;;;17.90;94.70;;;;;;6154845;28;20038;-83
2021/05/27 08:37:13;;;;;;;3.08;2.63;;;17.60;98.80;;;;;;6157769;28;20089;-81
2021/05/27 08:40:14;;;;;;;2.88;2.58;;;17.30;92.90;;;;;;6157263;28;20042;-82
2021/05/27 08:43:14;;;;;;;4.10;2.40;;;17.00;91.20;;;;;;6157258;28;20098;-81
2021/05/27 08:46:15;;;;;;;3.40;2.92;;;16.50;92.30;;;;;;6157167;28;20027;-81
2021/05/27 08:49:16;;;;;;;2.67;2.33;;;;;;;;;;6156980;28;20027;-82
2021/05/27 08:52:17;;;;;;;2.92;2.63;;;;;;;;;;6157490;28;20058;-83
2021/05/27 08:55:18;;;;;;;2.85;2.55;;;15.50;93.00;;;;;;6157312;28;20385;-84
2021/05/27 08:58:21;;;;;;;3.33;2.42;;;15.20;95.40;;;;;;6139341;28;20034;-84
2021/05/27 09:01:23;;;;;;;4.05;3.13;;;16.50;99.90;;;;;;6143697;28;20089;-83
2021/05/27 09:04:24;;;;;;;3.17;2.83;;;16.60;96.60;;;;;;6135146;28;20042;-84
2021/05/27 09:07:45;;;;;;;3.28;2.30;;;17.80;98.80;;;;;;6135438;28;20070;-83
2021/05/27 09:10:51;;;;;;;2.08;1.95;;;17.70;97.10;;;;;;6167940;28;20556;-84
2021/05/27 09:14:00;;;;;;;3.83;2.17;;;17.50;90.40;;;;;;6148253;28;20042;-80
2021/05/27 09:17:04;;;;;;;4.00;2.60;;;17.80;91.60;;;;;;6148731;28;20141;-84
2021/05/27 09:20:15;;;;;;;2.65;2.45;;;17.80;93.30;;;;;;6181067;28;20049;-84
2021/05/27 09:23:21;;;;;;;3.25;2.40;;;18.20;97.60;;;;;;6193154;28;20034;-81
2021/05/27 09:26:22;;;;;;;3.15;2.55;;;18.10;89.40;;;;;;6180452;28;20038;-82
2021/05/27 09:29:23;;;;;;;5.95;2.65;;;18.70;98.20;;;;;;6180310;28;20078;-79
2021/05/27 09:32:26;;;;;;;4.35;3.05;;;18.60;91.20;;;;;;6163761;28;20384;-80
2021/05/27 09:35:27;;;;;;;2.97;2.13;;;19.20;89.80;;;;;;6195651;28;20117;-79
2021/05/27 09:38:29;;;;;;;4.95;2.55;;;20.20;94.10;;;;;;6167034;28;20096;-80
2021/05/27 09:41:33;;;;;;;3.88;2.63;;;20.80;93.10;;;;;;6173440;28;20127;-80
2021/05/27 09:44:34;;;;;;;4.05;2.60;;;20.60;89.70;;;;;;6197880;28;20097;-80
2021/05/27 09:47:35;;;;;;;3.22;2.40;;;20.80;97.90;;;;;;6179256;28;20477;-80
2021/05/27 09:50:40;;;;;;;3.63;2.80;;;21.10;87.50;;;;;;6179493;28;20101;-81
2021/05/27 09:53:51;;;;;;;2.58;2.30;;;20.90;93.50;;;;;;6193356;28;20033;-81
2021/05/27 09:56:51;;;;;;;3.83;2.47;;;19.80;90.00;;;;;;6157347;28;20086;-81
2021/05/27 09:59:52;;;;;;;2.58;2.17;;;20.00;95.90;;;;;;6175060;28;20022;-81
2021/05/27 10:02:53;;;;;;;2.75;2.38;;;20.00;95.30;;;;;;6196911;28;20035;-82
2021/05/27 10:05:54;;;;;;;4.53;2.63;;;20.20;86.70;;;;;;6178981;28;20042;-80
2021/05/27 10:08:55;;;;;;;8.15;2.75;;;20.10;74.10;;;;;;6179369;28;20088;-78
2021/05/27 10:11:56;;;;;;;7.63;2.80;;;21.20;90.60;;;;;;6195740;28;20473;-80
2021/05/27 10:14:56;;;;;;;4.07;3.22;;;20.90;74.30;;;;;;6157120;28;20070;-82
2021/05/27 10:18:01;;;;;;;2.50;2.25;;;20.20;67.70;;;;;;6171748;28;20055;-80
2021/05/27 10:21:03;;;;;;;4.03;2.25;;;20.20;74.70;;;;;;6160313;28;20023;-83
2021/05/27 10:24:04;;;;;;;3.95;2.67;;;20.20;70.60;;;;;;6174236;28;20034;-81
2021/05/27 10:27:05;;;;;;;3.28;2.55;;;20.80;67.90;;;;;;6196019;28;20040;-78
2021/05/27 10:30:07;;;;;;;3.72;2.10;;;21.10;72.00;;;;;;6196231;28;20034;-79
2021/05/27 10:33:20;;;;;;;3.50;2.45;;;21.90;74.30;;;;;;6168989;28;20027;-79
2021/05/27 10:36:55;;;;;;;4.30;2.95;;;21.90;78.00;;;;;;6149838;28;20050;-77
2021/05/27 10:39:55;;;;;;;5.85;3.20;;;22.80;60.80;;;;;;6193100;28;20027;-80
2021/05/27 10:42:56;;;;;;;3.58;2.38;;;20.70;68.40;;;;;;6173481;28;20035;-80
2021/05/27 10:45:57;;;;;;;2.60;2.40;;;21.10;64.50;;;;;;6189500;28;20038;-79
2021/05/27 10:48:57;;;;;;;2.40;1.77;;;20.90;63.00;;;;;;6178148;28;20034;-80
2021/05/27 10:52:27;;;;;;;3.85;2.42;;;20.10;65.20;;;;;;6170278;28;20374;-80
2021/05/27 10:55:50;;;;;;;3.50;2.03;;;20.50;67.60;;;;;;6186684;28;20027;-82
2021/05/27 10:58:53;;;;;;;2.50;2.30;;;20.60;65.10;;;;;;6171187;28;20500;-81
2021/05/27 11:01:54;;;;;;;3.33;2.25;;;20.90;65.30;;;;;;6180965;28;20113;-82
2021/05/27 11:05:14;;;;;;;2.75;2.10;;;21.00;64.80;;;;;;6177350;28;20050;-79
2021/05/27 11:08:18;;;;;;;10.90;3.70;;;21.40;64.50;;;;;;6177915;28;20030;-82
2021/05/27 11:11:39;;;;;;;2.30;2.10;;;21.80;65.00;;;;;;6177145;28;20077;-83
2021/05/27 11:14:41;;;;;;;3.83;2.20;;;21.50;58.90;;;;;;6193407;28;20034;-82
2021/05/27 11:17:42;;;;;;;3.90;2.50;;;21.10;64.70;;;;;;6176918;28;20038;-82
2021/05/27 11:20:43;;;;;;;3.90;2.50;;;20.20;63.00;;;;;;6174263;28;20062;-81
2021/05/27 11:27:32;;;;;;;2.25;2.05;;;19.50;64.70;;;;;;6170251;28;20039;-82
2021/05/27 11:30:39;;;;;;;3.15;2.20;;;20.30;72.80;;;;;;6154090;28;20042;-83
2021/05/27 11:33:40;;;;;;;2.65;2.35;;;20.50;67.30;;;;;;6169956;28;20117;-82
2021/05/27 11:36:41;;;;;;;3.53;2.20;;;20.90;69.00;;;;;;6153844;28;20031;-83
2021/05/27 11:39:49;;;;;;;2.85;2.10;;;21.20;69.10;;;;;;6153393;28;20034;-83
2021/05/27 11:42:50;;;;;;;2.92;2.17;;;21.30;82.60;;;;;;6153816;28;20042;-82
2021/05/27 11:45:52;;;;;;;2.75;2.55;;;21.50;66.50;;;;;;6169806;28;20042;-83
2021/05/27 11:51:53;;;;;;;3.08;2.55;;;21.20;64.00;;;;;;6176866;28;20041;-82
2021/05/27 11:54:54;;;;;;;3.38;2.30;;;20.80;80.70;;;;;;6166960;28;20038;-84
2021/05/27 11:57:54;;;;;;;3.58;2.20;;;20.90;83.30;;;;;;6153406;28;20031;-82
2021/05/27 12:00:55;;;;;;;3.40;2.20;;;20.80;89.70;;;;;;6170136;28;20656;-84
2021/05/27 12:03:59;;;;;;;3.20;2.55;;;20.80;93.60;;;;;;6169027;28;20362;-83
2021/05/27 12:07:04;;;;;;;4.40;2.30;;;20.70;78.40;;;;;;6173801;28;20035;-83
2021/05/27 12:10:05;;;;;;;2.58;2.20;;;20.90;82.00;;;;;;6159064;28;20109;-83
2021/05/27 12:13:16;;;;;;;3.30;2.10;;;20.60;81.10;;;;;;6177036;28;20030;-84
2021/05/27 12:16:28;;;;;;;3.50;2.75;;;20.60;67.80;;;;;;6151780;28;20062;-83
2021/05/27 12:19:28;;;;;;;3.97;2.50;;;20.60;94.50;;;;;;6137673;28;20038;-82
2021/05/27 12:22:50;;;;;;;4.88;2.30;;;20.30;79.40;;;;;;6143299;28;20047;-81
2021/05/27 12:25:52;;;;;;;2.10;1.90;;;20.80;82.60;;;;;;6150183;28;20050;-82
2021/05/27 12:28:53;;;;;;;2.15;1.98;;;;;;;;;;6139949;28;20031;-81
2021/05/27 12:31:54;;;;;;;2.70;2.50;;;20.50;84.50;;;;;;6152644;28;20770;-82
2021/05/27 12:34:54;;;;;;;2.47;2.08;;;20.50;71.80;;;;;;6149685;28;20090;-81
2021/05/27 12:37:58;;;;;;;2.92;2.30;;;;;;;;;;6152674;28;20030;-81
2021/05/27 12:41:04;;;;;;;2.13;1.92;;;20.10;79.70;;;;;;6146460;28;20023;-82
2021/05/27 12:44:06;;;;;;;3.03;2.00;;;20.10;67.00;;;;;;6140201;28;20034;-81
2021/05/27 12:47:21;;;;;;;3.42;2.20;;;20.20;69.40;;;;;;6141687;28;20039;-82
2021/05/27 12:50:23;;;;;;;3.92;2.05;;;20.20;63.30;;;;;;6152378;28;20034;-85
2021/05/27 12:53:31;;;;;;;4.17;2.17;;;20.10;66.50;;;;;;6152253;28;20041;-82
2021/05/27 12:56:31;;;;;;;2.75;2.05;;;20.10;60.90;;;;;;6136715;28;20031;-82
2021/05/27 12:59:32;;;;;;;2.45;2.20;;;;;;;;;;6136227;28;20122;-80
2021/05/27 13:02:33;;;;;;;2.42;2.17;;;19.70;83.50;;;;;;6141229;28;20042;-80
2021/05/27 13:05:34;;;;;;;2.58;2.00;;;19.70;67.00;;;;;;6139780;28;20453;-80
2021/05/27 13:08:35;;;;;;;1.98;1.80;;;19.40;66.70;;;;;;6136083;28;20125;-78
2021/05/27 13:11:42;;;;;;;1.85;1.75;;;19.30;66.10;;;;;;6149546;28;20074;-80
2021/05/27 13:14:44;;;;;;;3.95;2.08;;;19.20;64.80;;;;;;6149257;28;20035;-79
2021/05/27 13:18:01;;;;;;;2.45;2.10;;;19.80;63.70;;;;;;6156581;28;20054;-80
2021/05/27 13:21:04;;;;;;;2.78;2.15;;;18.90;85.00;;;;;;6157058;28;20039;-80
2021/05/27 13:24:28;;;;;;;2.88;2.20;;;18.80;69.80;;;;;;6140844;28;20042;-80
2021/05/27 13:27:49;;;;;;;3.50;3.10;;;18.70;64.20;;;;;;6158403;28;20519;-81
2021/05/27 13:30:50;;;;;;;4.68;2.25;;;18.10;66.70;;;;;;6169156;28;20030;-79
2021/05/27 13:33:55;;;;;;;2.45;2.25;;;18.60;67.20;;;;;;6197547;28;20023;-84
2021/05/27 13:36:56;;;;;;;2.20;2.00;;;18.80;69.20;;;;;;6152746;28;20541;-84
2021/05/27 13:39:57;;;;;;;2.53;2.30;;;19.00;77.50;;;;;;6141164;28;20096;-84
2021/05/27 13:43:01;;;;;;;2.40;1.95;;;18.80;66.40;;;;;;6156678;28;20031;-83
2021/05/27 13:46:08;;;;;;;4.68;2.28;;;18.70;68.40;;;;;;6156453;28;20039;-83
2021/05/27 13:49:08;;;;;;;2.40;2.10;;;18.50;71.10;;;;;;6161042;28;20042;-83
2021/05/27 13:52:09;;;;;;;2.97;2.10;;;18.90;68.80;;;;;;6159818;28;20520;-84
2021/05/27 13:55:10;;;;;;;3.42;2.28;;;18.10;72.70;;;;;;6155774;28;20061;-83
2021/05/27 13:58:11;;;;;;;2.92;2.28;;;18.00;90.50;;;;;;6164583;28;20070;-82
2021/05/27 14:01:12;;;;;;;4.32;2.13;;;;;;;;;;6150037;28;20062;-83
2021/05/27 14:04:12;;;;;;;4.00;2.20;;;18.00;70.90;;;;;;6160173;28;20468;-81
2021/05/27 14:07:13;;;;;;;3.22;2.40;;;18.10;74.10;;;;;;6181188;28;20041;-87
2021/05/27 14:10:13;;;;;;;4.07;2.50;;;18.60;75.30;;;;;;6140105;28;20030;-87
2021/05/27 14:13:14;;;;;;;3.60;2.80;;;;;;;;;;6139892;28;20031;-85
2021/05/27 14:16:15;;;;;;;3.10;2.80;;;18.50;69.10;;;;;;6155313;28;20066;-81
2021/05/27 14:19:16;;;;;;;4.07;2.35;;;18.80;68.40;;;;;;6155658;28;20466;-87
2021/05/27 14:22:16;;;;;;;2.67;2.33;;;19.40;85.10;;;;;;6129243;28;20053;-86
2021/05/27 14:25:17;;;;;;;3.67;2.60;;;19.10;81.70;;;;;;6145169;28;20051;-88
2021/05/27 14:28:18;;;;;;;2.50;2.28;;;19.00;68.70;;;;;;6139390;28;20031;-82
2021/05/27 14:31:18;;;;;;;3.30;2.30;;;18.90;68.40;;;;;;6144337;28;20050;-84
2021/05/27 14:34:19;;;;;;;3.13;2.40;;;18.50;66.00;;;;;;6154829;28;20500;-83
2021/05/27 14:37:20;;;;;;;5.00;3.50;;;;;;;;;;6137448;28;20030;-82
2021/05/27 14:40:21;;;;;;;2.63;2.42;;;18.70;83.50;;;;;;6149948;28;20035;-83
2021/05/27 14:43:22;;;;;;;2.50;2.17;;;;;;;;;;6138480;28;20035;-84
2021/05/27 14:46:22;;;;;;;3.67;2.15;;;18.50;62.20;;;;;;6155356;28;20037;-83
2021/05/27 14:49:23;;;;;;;4.32;2.38;;;18.70;68.50;;;;;;6154414;28;20030;-84
2021/05/27 14:52:24;;;;;;;2.38;2.17;;;;;;;;;;6154232;28;20097;-83
2021/05/27 14:55:24;;;;;;;3.70;2.42;;;18.40;84.00;;;;;;6153885;28;20031;-83
2021/05/27 14:58:25;;;;;;;2.45;2.25;;;18.40;68.20;;;;;;6138196;28;20046;-84
2021/05/27 15:01:26;;;;;;;3.63;2.47;;;18.50;67.70;;;;;;6154019;28;20588;-83
2021/05/27 15:04:26;;;;;;;3.55;2.30;;;18.40;65.60;;;;;;6153681;28;20097;-82
2021/05/27 15:07:27;;;;;;;3.00;2.30;;;18.70;83.50;;;;;;6148352;28;20039;-83
2021/05/27 15:10:27;;;;;;;2.63;2.20;;;18.80;83.70;;;;;;6141044;28;20034;-84
2021/05/27 15:13:28;;;;;;;5.85;3.45;;;18.90;80.00;;;;;;6153537;28;20030;-85
2021/05/27 15:16:29;;;;;;;3.80;2.40;;;19.00;92.20;;;;;;6158573;28;20066;-84
2021/05/27 15:19:29;;;;;;;3.88;2.42;;;19.10;88.20;;;;;;6161487;28;20101;-83
2021/05/27 15:22:30;;;;;;;3.20;2.22;;;19.10;93.30;;;;;;6157212;28;20077;-83
2021/05/27 15:25:31;;;;;;;4.88;2.30;;;18.90;92.30;;;;;;6160719;28;20041;-84
2021/05/27 15:28:32;;;;;;;3.58;2.80;;;;;;;;;;6147130;28;20031;-84
2021/05/27 15:31:32;;;;;;;2.72;2.42;;;19.20;93.90;;;;;;6153742;28;20110;-82
2021/05/27 15:34:34;;;;;;;3.53;2.28;;;;;;;;;;6154330;28;20050;-83
2021/05/27 15:37:35;;;;;;;4.22;2.40;;;;;;;;;;6152813;28;20027;-84
2021/05/27 15:40:36;;;;;;;3.55;2.40;;;;;;;;;;6153616;28;20038;-83
2021/05/27 15:43:37;;;;;;;2.15;1.92;;;;;;;;;;6153344;28;20121;-84
2021/05/27 15:46:38;;;;;;;6.70;2.60;;;;;;;;;;6153202;28;20481;-84
2021/05/27 15:49:39;;;;;;;5.00;2.63;;;19.00;76.20;;;;;;6167017;28;20483;-83
2021/05/27 15:52:40;;;;;;;3.65;2.40;;;18.70;75.20;;;;;;6144989;28;20034;-83
2021/05/27 15:55:40;;;;;;;3.40;2.72;;;18.50;70.90;;;;;;6160964;28;20110;-84
2021/05/27 15:58:41;;;;;;;3.17;2.60;;;18.40;72.20;;;;;;6160602;28;20034;-83
2021/05/27 16:01:41;;;;;;;4.47;2.20;;;18.50;70.60;;;;;;6137782;28;20038;-84
2021/05/27 16:04:42;;;;;;;2.85;2.17;;;18.60;72.70;;;;;;6137342;28;20133;-84
2021/05/27 16:07:43;;;;;;;4.13;2.67;;;;;;;;;;6153073;28;20037;-78
2021/05/27 16:10:44;;;;;;;2.85;2.55;;;;;;;;;;6164447;28;20465;-87
2021/05/27 16:13:44;;;;;;;2.50;2.30;;;18.80;75.40;;;;;;6145628;28;20074;-89
2021/05/27 16:16:45;;;;;;;4.05;2.38;;;18.70;72.40;;;;;;6157710;28;20054;-85
2021/05/27 16:19:46;;;;;;;3.25;2.45;;;18.70;70.60;;;;;;6140382;28;20028;-86
2021/05/27 16:22:47;;;;;;;4.32;2.50;;;19.60;70.60;;;;;;6156573;28;20066;-81
2021/05/27 16:25:48;;;;;;;4.63;2.30;;;18.20;84.10;;;;;;6156003;28;20535;-84
2021/05/27 16:28:48;;;;;;;3.00;2.40;;;18.40;71.70;;;;;;6137129;28;20026;-82
2021/05/27 16:31:49;;;;;;;5.28;3.22;;;18.00;67.90;;;;;;6142162;28;20070;-84
2021/05/27 16:34:59;;;;;;;16.02;11.30;;;17.90;69.70;;;;;;6160433;28;20062;-82